Gainesville Regional Airport
KGNV : now visible

Airfield :











YOU CAN JOIN US ON...

 
LOGIN :

Register | Disclaimer

   EN    FR    IT 

 









Legend :    VFR   Marginal VFR   IFR   Intensive IFR   Very Intensive IFR
Visi :
Ceiling :
>= 8 km
>= 3000ft
5 to 8 km
1000 to 3000 ft
1500m to 5 km
500 to 1000 ft
800 to 1500m
200 to 500 ft
< 800m
< 200 ft
Symbols :   Thunderstorms  Fog  Heavy snow  Heavy precipitations  Wind > 20 kt






- Airport Elevation : 152 ft
- IATA code : GNV


KGNV - Gainesville Regional

CURRENT METAR :
  • 041753Z 33006KT 10SM VCTS FEW060 FEW095 23/22 A2998 RMK AO2 WSHFT 1657 LTG DSNT ALQDS RAB07E39 SLP150 P0003 60003 T02330217 10322 20228 53002

EXPIRED METARs :
  • 041717Z 23015KT 5SM VCTS RA SCT039 BKN050 OVC070 24/20 A2999 RMK AO2 WSHFT 1657 LTG DSNT S-NW RAB07 P0000 T02390200
  • 041653Z VRB05KT 10SM VCTS FEW050 32/23 A2997 RMK AO2 LTG DSNT S-NW SLP147 T03170233
  • 041649Z VRB03KT 10SM VCTS FEW050 32/24 A2997 RMK AO2 LTG DSNT S-NW
  • 041553Z VRB04KT 10SM FEW037 SCT047 30/25 A2998 RMK AO2 LTG DSNT S-W SLP147 T03000250

TAF KGNV
Valid from the 04 at 18:00 until the 05 at 18:00 UTC


041720Z 0418/0518 20006KT P6SM VCTS SCT030CB SCT100
TEMPO 0418/0421 VRB15G25KT 4SM TSRA BKN030CB
FM042200 VRB04KT P6SM VCSH SCT035 BKN100
FM050200 VRB03KT P6SM SCT040 BKN200
FM051400 22005KT P6SM SCT025 SCT250
KZJX FIR / North America



MET'MAP, your aeronautical weather chart ! - Copyright ORBIFLY December 2007 - Disclaimer

ORBIFLY MET'MAP TEAM :

Programming & Development : Alexandra Zaïnal
Concept & original design : Baudouin d'Aumeries
Assistance for programming : Marc-Olivier Méhu
Technical & hardware support : Manuel Goepfert

Contact : metmap@orbifly.com




SOURCES & CREDITS :

   NOAA       Earth
Advisory